sensor_id;sensor_type;location;lat;lon;timestamp;P1;P2;P0
29460;PMS7003;16428;47.836;35.106;2022-12-18T00:01:57;3.67;3.67;3.00
29460;PMS7003;16428;47.836;35.106;2022-12-18T00:04:32;0.00;0.00;0.00
29460;PMS7003;16428;47.836;35.106;2022-12-18T00:07:02;0.00;0.00;0.00
29460;PMS7003;16428;47.836;35.106;2022-12-18T00:09:33;0.00;0.00;0.00
29460;PMS7003;16428;47.836;35.106;2022-12-18T00:12:07;3.00;3.00;1.00
29460;PMS7003;16428;47.836;35.106;2022-12-18T00:14:45;0.00;0.00;0.00
29460;PMS7003;16428;47.836;35.106;2022-12-18T00:17:14;6.00;6.00;1.67
29460;PMS7003;16428;47.836;35.106;2022-12-18T00:19:46;0.00;0.00;0.00
29460;PMS7003;16428;47.836;35.106;2022-12-18T00:22:18;0.00;0.00;0.00
29460;PMS7003;16428;47.836;35.106;2022-12-18T00:24:46;1.00;1.00;1.00
29460;PMS7003;16428;47.836;35.106;2022-12-18T00:27:15;0.00;0.00;0.00
29460;PMS7003;16428;47.836;35.106;2022-12-18T00:29:44;0.00;0.00;0.00
29460;PMS7003;16428;47.836;35.106;2022-12-18T00:32:13;1.00;0.00;0.00
29460;PMS7003;16428;47.836;35.106;2022-12-18T00:34:49;5.67;5.67;5.33
29460;PMS7003;16428;47.836;35.106;2022-12-18T00:37:18;0.00;0.00;0.00
29460;PMS7003;16428;47.836;35.106;2022-12-18T00:39:48;0.00;0.00;0.00
29460;PMS7003;16428;47.836;35.106;2022-12-18T00:42:18;1.00;1.00;1.00
29460;PMS7003;16428;47.836;35.106;2022-12-18T00:45:06;0.00;0.00;0.00
29460;PMS7003;16428;47.836;35.106;2022-12-18T00:47:39;0.00;0.00;0.00
29460;PMS7003;16428;47.836;35.106;2022-12-18T00:50:10;1.00;1.00;1.00
29460;PMS7003;16428;47.836;35.106;2022-12-18T00:52:39;0.00;0.00;0.00
29460;PMS7003;16428;47.836;35.106;2022-12-18T00:55:09;0.00;0.00;0.00
29460;PMS7003;16428;47.836;35.106;2022-12-18T00:57:40;0.00;0.00;0.00
29460;PMS7003;16428;47.836;35.106;2022-12-18T01:00:11;0.00;0.00;0.00
29460;PMS7003;16428;47.836;35.106;2022-12-18T01:02:47;0.00;0.00;0.00
29460;PMS7003;16428;47.836;35.106;2022-12-18T01:05:16;0.00;0.00;0.00
29460;PMS7003;16428;47.836;35.106;2022-12-18T01:07:45;0.00;0.00;0.00
29460;PMS7003;16428;47.836;35.106;2022-12-18T01:10:13;0.00;0.00;0.00
29460;PMS7003;16428;47.836;35.106;2022-12-18T01:12:42;0.33;0.33;0.33
29460;PMS7003;16428;47.836;35.106;2022-12-18T01:15:11;0.00;0.00;0.00
29460;PMS7003;16428;47.836;35.106;2022-12-18T01:17:44;0.00;0.00;0.00
29460;PMS7003;16428;47.836;35.106;2022-12-18T01:20:17;0.00;0.00;0.00
29460;PMS7003;16428;47.836;35.106;2022-12-18T01:22:46;7.00;7.00;3.00
29460;PMS7003;16428;47.836;35.106;2022-12-18T01:25:16;0.00;0.00;0.00
29460;PMS7003;16428;47.836;35.106;2022-12-18T01:27:53;0.00;0.00;0.00
29460;PMS7003;16428;47.836;35.106;2022-12-18T01:30:22;0.00;0.00;0.00
29460;PMS7003;16428;47.836;35.106;2022-12-18T01:32:51;0.00;0.00;0.00
29460;PMS7003;16428;47.836;35.106;2022-12-18T01:35:21;0.00;0.00;0.00
29460;PMS7003;16428;47.836;35.106;2022-12-18T01:37:57;0.00;0.00;0.00
29460;PMS7003;16428;47.836;35.106;2022-12-18T01:40:27;0.00;0.00;0.00
29460;PMS7003;16428;47.836;35.106;2022-12-18T01:42:56;0.00;0.00;0.00
29460;PMS7003;16428;47.836;35.106;2022-12-18T01:45:27;0.00;0.00;0.00
29460;PMS7003;16428;47.836;35.106;2022-12-18T01:48:00;0.00;0.00;0.00
29460;PMS7003;16428;47.836;35.106;2022-12-18T01:50:41;0.00;0.00;0.00
29460;PMS7003;16428;47.836;35.106;2022-12-18T01:53:19;0.00;0.00;0.00
29460;PMS7003;16428;47.836;35.106;2022-12-18T01:55:54;0.00;0.00;0.00
29460;PMS7003;16428;47.836;35.106;2022-12-18T02:01:31;0.00;0.00;0.00
29460;PMS7003;16428;47.836;35.106;2022-12-18T02:07:07;0.00;0.00;0.00
29460;PMS7003;16428;47.836;35.106;2022-12-18T02:09:49;0.00;0.00;0.00
29460;PMS7003;16428;47.836;35.106;2022-12-18T02:15:31;1.00;1.00;1.00
29460;PMS7003;16428;47.836;35.106;2022-12-18T02:18:11;0.00;0.00;0.00
29460;PMS7003;16428;47.836;35.106;2022-12-18T02:20:58;0.00;0.00;0.00
29460;PMS7003;16428;47.836;35.106;2022-12-18T02:26:55;0.00;0.00;0.00
29460;PMS7003;16428;47.836;35.106;2022-12-18T02:29:29;0.00;0.00;0.00
29460;PMS7003;16428;47.836;35.106;2022-12-18T02:32:06;0.00;0.00;0.00
29460;PMS7003;16428;47.836;35.106;2022-12-18T02:34:41;0.00;0.00;0.00
29460;PMS7003;16428;47.836;35.106;2022-12-18T02:37:14;0.00;0.00;0.00
29460;PMS7003;16428;47.836;35.106;2022-12-18T02:39:46;0.00;0.00;0.00
29460;PMS7003;16428;47.836;35.106;2022-12-18T02:42:17;0.00;0.00;0.00
29460;PMS7003;16428;47.836;35.106;2022-12-18T02:44:48;0.00;0.00;0.00
29460;PMS7003;16428;47.836;35.106;2022-12-18T02:47:19;0.00;0.00;0.00
29460;PMS7003;16428;47.836;35.106;2022-12-18T03:04:34;4.00;4.00;4.00
29460;PMS7003;16428;47.836;35.106;2022-12-18T03:07:26;0.00;0.00;0.00
29460;PMS7003;16428;47.836;35.106;2022-12-18T03:10:04;0.00;0.00;0.00
29460;PMS7003;16428;47.836;35.106;2022-12-18T03:12:47;0.00;0.00;0.00
29460;PMS7003;16428;47.836;35.106;2022-12-18T03:15:51;0.00;0.00;0.00
29460;PMS7003;16428;47.836;35.106;2022-12-18T03:18:32;0.00;0.00;0.00
29460;PMS7003;16428;47.836;35.106;2022-12-18T03:21:09;0.00;0.00;0.00
29460;PMS7003;16428;47.836;35.106;2022-12-18T03:23:43;0.00;0.00;0.00
29460;PMS7003;16428;47.836;35.106;2022-12-18T03:26:17;3.33;3.33;3.33
29460;PMS7003;16428;47.836;35.106;2022-12-18T03:28:53;0.00;0.00;0.00
29460;PMS7003;16428;47.836;35.106;2022-12-18T03:31:31;0.00;0.00;0.00
29460;PMS7003;16428;47.836;35.106;2022-12-18T03:34:09;0.00;0.00;0.00
29460;PMS7003;16428;47.836;35.106;2022-12-18T03:36:43;0.00;0.00;0.00
29460;PMS7003;16428;47.836;35.106;2022-12-18T03:39:12;0.00;0.00;0.00
29460;PMS7003;16428;47.836;35.106;2022-12-18T03:41:51;0.00;0.00;0.00
29460;PMS7003;16428;47.836;35.106;2022-12-18T03:50:49;0.00;0.00;0.00
29460;PMS7003;16428;47.836;35.106;2022-12-18T03:53:41;0.00;0.00;0.00
29460;PMS7003;16428;47.836;35.106;2022-12-18T03:56:19;0.00;0.00;0.00
29460;PMS7003;16428;47.836;35.106;2022-12-18T03:58:52;0.00;0.00;0.00
29460;PMS7003;16428;47.836;35.106;2022-12-18T04:01:28;9.00;9.00;9.00
29460;PMS7003;16428;47.836;35.106;2022-12-18T04:04:01;0.00;0.00;0.00
29460;PMS7003;16428;47.836;35.106;2022-12-18T04:06:35;0.00;0.00;0.00
29460;PMS7003;16428;47.836;35.106;2022-12-18T04:09:13;0.00;0.00;0.00
29460;PMS7003;16428;47.836;35.106;2022-12-18T04:11:51;0.00;0.00;0.00
29460;PMS7003;16428;47.836;35.106;2022-12-18T04:14:20;0.00;0.00;0.00
29460;PMS7003;16428;47.836;35.106;2022-12-18T04:16:49;0.00;0.00;0.00
29460;PMS7003;16428;47.836;35.106;2022-12-18T04:19:19;0.00;0.00;0.00
29460;PMS7003;16428;47.836;35.106;2022-12-18T04:21:50;0.00;0.00;0.00
29460;PMS7003;16428;47.836;35.106;2022-12-18T04:24:20;2.25;2.25;2.25
29460;PMS7003;16428;47.836;35.106;2022-12-18T04:26:50;0.00;0.00;0.00
29460;PMS7003;16428;47.836;35.106;2022-12-18T04:29:26;0.00;0.00;0.00
29460;PMS7003;16428;47.836;35.106;2022-12-18T04:31:55;0.00;0.00;0.00
29460;PMS7003;16428;47.836;35.106;2022-12-18T04:34:24;0.00;0.00;0.00
29460;PMS7003;16428;47.836;35.106;2022-12-18T04:37:02;0.00;0.00;0.00
29460;PMS7003;16428;47.836;35.106;2022-12-18T04:39:42;0.00;0.00;0.00
29460;PMS7003;16428;47.836;35.106;2022-12-18T04:42:21;0.00;0.00;0.00
29460;PMS7003;16428;47.836;35.106;2022-12-18T04:44:54;0.00;0.00;0.00
29460;PMS7003;16428;47.836;35.106;2022-12-18T04:47:32;0.00;0.00;0.00
29460;PMS7003;16428;47.836;35.106;2022-12-18T04:50:01;0.00;0.00;0.00
29460;PMS7003;16428;47.836;35.106;2022-12-18T04:52:34;0.00;0.00;0.00
29460;PMS7003;16428;47.836;35.106;2022-12-18T04:55:03;0.00;0.00;0.00
29460;PMS7003;16428;47.836;35.106;2022-12-18T04:57:33;0.00;0.00;0.00
29460;PMS7003;16428;47.836;35.106;2022-12-18T05:00:05;0.00;0.00;0.00
29460;PMS7003;16428;47.836;35.106;2022-12-18T05:02:34;0.00;0.00;0.00
29460;PMS7003;16428;47.836;35.106;2022-12-18T05:05:04;0.00;0.00;0.00
29460;PMS7003;16428;47.836;35.106;2022-12-18T05:07:35;0.00;0.00;0.00
29460;PMS7003;16428;47.836;35.106;2022-12-18T05:10:05;0.00;0.00;0.00
29460;PMS7003;16428;47.836;35.106;2022-12-18T05:12:38;0.00;0.00;0.00
29460;PMS7003;16428;47.836;35.106;2022-12-18T05:15:31;0.00;0.00;0.00
29460;PMS7003;16428;47.836;35.106;2022-12-18T05:18:01;0.00;0.00;0.00
29460;PMS7003;16428;47.836;35.106;2022-12-18T05:20:35;0.00;0.00;0.00
29460;PMS7003;16428;47.836;35.106;2022-12-18T05:23:03;0.00;0.00;0.00
29460;PMS7003;16428;47.836;35.106;2022-12-18T05:25:34;0.00;0.00;0.00
29460;PMS7003;16428;47.836;35.106;2022-12-18T05:28:03;0.00;0.00;0.00
29460;PMS7003;16428;47.836;35.106;2022-12-18T05:30:32;0.00;0.00;0.00
29460;PMS7003;16428;47.836;35.106;2022-12-18T05:33:02;0.00;0.00;0.00
29460;PMS7003;16428;47.836;35.106;2022-12-18T05:35:30;0.00;0.00;0.00
29460;PMS7003;16428;47.836;35.106;2022-12-18T05:38:09;1.00;1.00;1.00
29460;PMS7003;16428;47.836;35.106;2022-12-18T05:40:43;0.00;0.00;0.00
29460;PMS7003;16428;47.836;35.106;2022-12-18T05:43:12;0.00;0.00;0.00
29460;PMS7003;16428;47.836;35.106;2022-12-18T05:45:48;1.00;1.00;0.00
29460;PMS7003;16428;47.836;35.106;2022-12-18T05:48:18;0.00;0.00;0.00
29460;PMS7003;16428;47.836;35.106;2022-12-18T05:50:53;0.00;0.00;0.00
29460;PMS7003;16428;47.836;35.106;2022-12-18T05:53:23;0.00;0.00;0.00
29460;PMS7003;16428;47.836;35.106;2022-12-18T05:55:54;0.00;0.00;0.00
29460;PMS7003;16428;47.836;35.106;2022-12-18T05:58:23;0.00;0.00;0.00
29460;PMS7003;16428;47.836;35.106;2022-12-18T06:00:52;0.00;0.00;0.00
29460;PMS7003;16428;47.836;35.106;2022-12-18T06:03:21;0.00;0.00;0.00
29460;PMS7003;16428;47.836;35.106;2022-12-18T06:05:53;0.00;0.00;0.00
29460;PMS7003;16428;47.836;35.106;2022-12-18T06:08:23;0.00;0.00;0.00
29460;PMS7003;16428;47.836;35.106;2022-12-18T06:10:52;0.00;0.00;0.00
29460;PMS7003;16428;47.836;35.106;2022-12-18T06:13:21;0.00;0.00;0.00
29460;PMS7003;16428;47.836;35.106;2022-12-18T06:15:52;0.00;0.00;0.00
29460;PMS7003;16428;47.836;35.106;2022-12-18T06:18:23;0.00;0.00;0.00
29460;PMS7003;16428;47.836;35.106;2022-12-18T06:20:57;0.00;0.00;0.00
29460;PMS7003;16428;47.836;35.106;2022-12-18T06:23:26;0.00;0.00;0.00
29460;PMS7003;16428;47.836;35.106;2022-12-18T06:25:55;0.00;0.00;0.00
29460;PMS7003;16428;47.836;35.106;2022-12-18T06:28:24;0.00;0.00;0.00
29460;PMS7003;16428;47.836;35.106;2022-12-18T06:30:54;0.00;0.00;0.00
29460;PMS7003;16428;47.836;35.106;2022-12-18T06:33:25;0.00;0.00;0.00
29460;PMS7003;16428;47.836;35.106;2022-12-18T06:36:02;0.00;0.00;0.00
29460;PMS7003;16428;47.836;35.106;2022-12-18T06:38:37;0.00;0.00;0.00
29460;PMS7003;16428;47.836;35.106;2022-12-18T06:41:13;0.00;0.00;0.00
29460;PMS7003;16428;47.836;35.106;2022-12-18T06:43:52;1.00;0.00;0.00
29460;PMS7003;16428;47.836;35.106;2022-12-18T06:46:28;0.00;0.00;0.00
29460;PMS7003;16428;47.836;35.106;2022-12-18T06:48:58;0.00;0.00;0.00
29460;PMS7003;16428;47.836;35.106;2022-12-18T06:51:27;0.00;0.00;0.00
29460;PMS7003;16428;47.836;35.106;2022-12-18T06:53:57;0.00;0.00;0.00
29460;PMS7003;16428;47.836;35.106;2022-12-18T06:56:26;0.00;0.00;0.00
29460;PMS7003;16428;47.836;35.106;2022-12-18T06:58:55;4.00;4.00;0.00
29460;PMS7003;16428;47.836;35.106;2022-12-18T07:01:24;4.00;4.00;3.00
29460;PMS7003;16428;47.836;35.106;2022-12-18T07:03:56;0.00;0.00;0.00
29460;PMS7003;16428;47.836;35.106;2022-12-18T07:06:25;0.00;0.00;0.00
29460;PMS7003;16428;47.836;35.106;2022-12-18T07:08:56;0.00;0.00;0.00
29460;PMS7003;16428;47.836;35.106;2022-12-18T07:11:27;0.00;0.00;0.00
29460;PMS7003;16428;47.836;35.106;2022-12-18T07:13:59;0.00;0.00;0.00
29460;PMS7003;16428;47.836;35.106;2022-12-18T07:16:28;3.00;3.00;1.00
29460;PMS7003;16428;47.836;35.106;2022-12-18T07:18:57;3.75;3.75;3.75
29460;PMS7003;16428;47.836;35.106;2022-12-18T07:21:32;0.00;0.00;0.00
29460;PMS7003;16428;47.836;35.106;2022-12-18T07:24:03;0.00;0.00;0.00
29460;PMS7003;16428;47.836;35.106;2022-12-18T07:26:38;4.50;4.50;4.50
29460;PMS7003;16428;47.836;35.106;2022-12-18T07:29:07;0.00;0.00;0.00
29460;PMS7003;16428;47.836;35.106;2022-12-18T07:31:36;0.00;0.00;0.00
29460;PMS7003;16428;47.836;35.106;2022-12-18T07:34:09;2.25;2.25;2.25
29460;PMS7003;16428;47.836;35.106;2022-12-18T07:36:42;0.00;0.00;0.00
29460;PMS7003;16428;47.836;35.106;2022-12-18T07:39:11;0.00;0.00;0.00
29460;PMS7003;16428;47.836;35.106;2022-12-18T07:41:49;0.00;0.00;0.00
29460;PMS7003;16428;47.836;35.106;2022-12-18T07:44:37;0.00;0.00;0.00
29460;PMS7003;16428;47.836;35.106;2022-12-18T07:47:06;0.00;0.00;0.00
29460;PMS7003;16428;47.836;35.106;2022-12-18T07:49:40;0.00;0.00;0.00
29460;PMS7003;16428;47.836;35.106;2022-12-18T07:52:11;0.75;0.00;0.00
29460;PMS7003;16428;47.836;35.106;2022-12-18T07:54:54;0.00;0.00;0.00
29460;PMS7003;16428;47.836;35.106;2022-12-18T07:57:25;0.00;0.00;0.00
29460;PMS7003;16428;47.836;35.106;2022-12-18T08:00:15;0.00;0.00;0.00
29460;PMS7003;16428;47.836;35.106;2022-12-18T08:02:45;0.00;0.00;0.00
29460;PMS7003;16428;47.836;35.106;2022-12-18T08:05:18;0.00;0.00;0.00
29460;PMS7003;16428;47.836;35.106;2022-12-18T08:07:51;0.00;0.00;0.00
29460;PMS7003;16428;47.836;35.106;2022-12-18T08:10:22;0.00;0.00;0.00
29460;PMS7003;16428;47.836;35.106;2022-12-18T08:13:06;3.00;3.00;2.00
29460;PMS7003;16428;47.836;35.106;2022-12-18T08:15:45;0.00;0.00;0.00
29460;PMS7003;16428;47.836;35.106;2022-12-18T08:18:21;0.00;0.00;0.00
29460;PMS7003;16428;47.836;35.106;2022-12-18T08:21:23;0.00;0.00;0.00
29460;PMS7003;16428;47.836;35.106;2022-12-18T08:24:11;0.00;0.00;0.00
29460;PMS7003;16428;47.836;35.106;2022-12-18T08:26:43;0.00;0.00;0.00
29460;PMS7003;16428;47.836;35.106;2022-12-18T08:29:54;0.00;0.00;0.00
29460;PMS7003;16428;47.836;35.106;2022-12-18T08:33:08;0.00;0.00;0.00
29460;PMS7003;16428;47.836;35.106;2022-12-18T08:35:48;0.00;0.00;0.00
29460;PMS7003;16428;47.836;35.106;2022-12-18T08:38:45;0.00;0.00;0.00
29460;PMS7003;16428;47.836;35.106;2022-12-18T08:41:25;0.00;0.00;0.00
29460;PMS7003;16428;47.836;35.106;2022-12-18T08:43:57;0.00;0.00;0.00
29460;PMS7003;16428;47.836;35.106;2022-12-18T08:46:46;0.00;0.00;0.00
29460;PMS7003;16428;47.836;35.106;2022-12-18T08:49:19;0.00;0.00;0.00
29460;PMS7003;16428;47.836;35.106;2022-12-18T08:51:48;0.00;0.00;0.00
29460;PMS7003;16428;47.836;35.106;2022-12-18T08:54:22;0.00;0.00;0.00
29460;PMS7003;16428;47.836;35.106;2022-12-18T08:56:51;0.00;0.00;0.00
29460;PMS7003;16428;47.836;35.106;2022-12-18T08:59:21;0.00;0.00;0.00
29460;PMS7003;16428;47.836;35.106;2022-12-18T09:01:53;0.00;0.00;0.00
29460;PMS7003;16428;47.836;35.106;2022-12-18T09:04:24;0.00;0.00;0.00
29460;PMS7003;16428;47.836;35.106;2022-12-18T09:06:54;3.00;0.00;0.00
29460;PMS7003;16428;47.836;35.106;2022-12-18T09:09:26;0.00;0.00;0.00
29460;PMS7003;16428;47.836;35.106;2022-12-18T09:11:55;1.00;1.00;0.00
29460;PMS7003;16428;47.836;35.106;2022-12-18T09:14:25;0.00;0.00;0.00
29460;PMS7003;16428;47.836;35.106;2022-12-18T09:16:56;0.00;0.00;0.00
29460;PMS7003;16428;47.836;35.106;2022-12-18T09:19:25;0.00;0.00;0.00
29460;PMS7003;16428;47.836;35.106;2022-12-18T09:21:54;0.00;0.00;0.00
29460;PMS7003;16428;47.836;35.106;2022-12-18T09:24:26;0.00;0.00;0.00
29460;PMS7003;16428;47.836;35.106;2022-12-18T09:26:55;0.00;0.00;0.00
29460;PMS7003;16428;47.836;35.106;2022-12-18T09:29:25;0.00;0.00;0.00
29460;PMS7003;16428;47.836;35.106;2022-12-18T09:31:55;0.00;0.00;0.00
29460;PMS7003;16428;47.836;35.106;2022-12-18T09:34:38;0.00;0.00;0.00
29460;PMS7003;16428;47.836;35.106;2022-12-18T09:37:10;0.00;0.00;0.00
29460;PMS7003;16428;47.836;35.106;2022-12-18T09:39:41;0.00;0.00;0.00
29460;PMS7003;16428;47.836;35.106;2022-12-18T09:42:21;0.00;0.00;0.00
29460;PMS7003;16428;47.836;35.106;2022-12-18T09:44:52;0.25;0.25;0.25
29460;PMS7003;16428;47.836;35.106;2022-12-18T09:47:33;0.00;0.00;0.00
29460;PMS7003;16428;47.836;35.106;2022-12-18T09:50:15;0.00;0.00;0.00
29460;PMS7003;16428;47.836;35.106;2022-12-18T09:53:11;3.00;0.50;0.00
29460;PMS7003;16428;47.836;35.106;2022-12-18T09:55:46;0.00;0.00;0.00
29460;PMS7003;16428;47.836;35.106;2022-12-18T09:58:17;0.00;0.00;0.00
29460;PMS7003;16428;47.836;35.106;2022-12-18T10:01:15;0.00;0.00;0.00
29460;PMS7003;16428;47.836;35.106;2022-12-18T10:03:52;1.00;1.00;1.00
29460;PMS7003;16428;47.836;35.106;2022-12-18T10:09:15;0.00;0.00;0.00
29460;PMS7003;16428;47.836;35.106;2022-12-18T10:15:20;0.00;0.00;0.00
29460;PMS7003;16428;47.836;35.106;2022-12-18T10:21:18;0.00;0.00;0.00
29460;PMS7003;16428;47.836;35.106;2022-12-18T10:27:09;0.00;0.00;0.00
29460;PMS7003;16428;47.836;35.106;2022-12-18T10:29:45;0.00;0.00;0.00
29460;PMS7003;16428;47.836;35.106;2022-12-18T10:32:17;0.25;0.25;0.25
29460;PMS7003;16428;47.836;35.106;2022-12-18T10:34:58;0.00;0.00;0.00
29460;PMS7003;16428;47.836;35.106;2022-12-18T10:37:39;0.00;0.00;0.00
29460;PMS7003;16428;47.836;35.106;2022-12-18T14:12:44;0.00;0.00;0.00
29460;PMS7003;16428;47.836;35.106;2022-12-18T14:15:46;0.00;0.00;0.00
29460;PMS7003;16428;47.836;35.106;2022-12-18T14:18:46;0.00;0.00;0.00
29460;PMS7003;16428;47.836;35.106;2022-12-18T14:21:34;0.00;0.00;0.00
29460;PMS7003;16428;47.836;35.106;2022-12-18T14:24:33;0.00;0.00;0.00
29460;PMS7003;16428;47.836;35.106;2022-12-18T14:27:29;0.00;0.00;0.00
29460;PMS7003;16428;47.836;35.106;2022-12-18T14:30:27;0.00;0.00;0.00
29460;PMS7003;16428;47.836;35.106;2022-12-18T14:33:27;0.00;0.00;0.00
29460;PMS7003;16428;47.836;35.106;2022-12-18T14:36:24;0.00;0.00;0.00
29460;PMS7003;16428;47.836;35.106;2022-12-18T14:39:16;0.00;0.00;0.00
29460;PMS7003;16428;47.836;35.106;2022-12-18T14:42:13;0.00;0.00;0.00
29460;PMS7003;16428;47.836;35.106;2022-12-18T14:48:37;0.00;0.00;0.00
29460;PMS7003;16428;47.836;35.106;2022-12-18T14:51:36;0.00;0.00;0.00
29460;PMS7003;16428;47.836;35.106;2022-12-18T14:54:33;0.00;0.00;0.00
29460;PMS7003;16428;47.836;35.106;2022-12-18T14:57:34;1.50;1.50;1.00
29460;PMS7003;16428;47.836;35.106;2022-12-18T15:00:33;0.00;0.00;0.00
29460;PMS7003;16428;47.836;35.106;2022-12-18T15:03:55;0.00;0.00;0.00
29460;PMS7003;16428;47.836;35.106;2022-12-18T15:10:19;7.25;4.25;2.75
29460;PMS7003;16428;47.836;35.106;2022-12-18T15:13:23;0.00;0.00;0.00
29460;PMS7003;16428;47.836;35.106;2022-12-18T15:16:22;1.00;1.00;1.00
29460;PMS7003;16428;47.836;35.106;2022-12-18T15:19:22;58.50;42.00;6.00
29460;PMS7003;16428;47.836;35.106;2022-12-18T15:22:46;0.00;0.00;0.00
29460;PMS7003;16428;47.836;35.106;2022-12-18T15:25:46;0.00;0.00;0.00
29460;PMS7003;16428;47.836;35.106;2022-12-18T15:29:20;0.00;0.00;0.00
29460;PMS7003;16428;47.836;35.106;2022-12-18T15:32:17;2.50;2.50;2.50
29460;PMS7003;16428;47.836;35.106;2022-12-18T15:35:21;0.00;0.00;0.00
29460;PMS7003;16428;47.836;35.106;2022-12-18T15:41:32;0.50;0.50;0.50
29460;PMS7003;16428;47.836;35.106;2022-12-18T15:45:16;0.00;0.00;0.00
29460;PMS7003;16428;47.836;35.106;2022-12-18T15:48:34;0.00;0.00;0.00
29460;PMS7003;16428;47.836;35.106;2022-12-18T15:51:17;0.00;0.00;0.00
29460;PMS7003;16428;47.836;35.106;2022-12-18T15:53:58;0.00;0.00;0.00
29460;PMS7003;16428;47.836;35.106;2022-12-18T15:56:53;0.00;0.00;0.00
29460;PMS7003;16428;47.836;35.106;2022-12-18T15:59:55;3.25;3.25;3.25
29460;PMS7003;16428;47.836;35.106;2022-12-18T16:02:28;0.00;0.00;0.00
29460;PMS7003;16428;47.836;35.106;2022-12-18T16:05:01;0.00;0.00;0.00
29460;PMS7003;16428;47.836;35.106;2022-12-18T16:07:33;0.00;0.00;0.00
29460;PMS7003;16428;47.836;35.106;2022-12-18T16:10:17;3.00;3.00;3.00
29460;PMS7003;16428;47.836;35.106;2022-12-18T16:13:16;3.00;3.00;3.00
29460;PMS7003;16428;47.836;35.106;2022-12-18T16:16:15;6.75;6.75;2.25
29460;PMS7003;16428;47.836;35.106;2022-12-18T16:19:12;7.00;7.00;7.00
29460;PMS7003;16428;47.836;35.106;2022-12-18T16:21:59;0.00;0.00;0.00
29460;PMS7003;16428;47.836;35.106;2022-12-18T16:24:49;0.00;0.00;0.00
29460;PMS7003;16428;47.836;35.106;2022-12-18T16:27:50;0.00;0.00;0.00
29460;PMS7003;16428;47.836;35.106;2022-12-18T16:30:51;0.00;0.00;0.00
29460;PMS7003;16428;47.836;35.106;2022-12-18T16:33:37;0.75;0.75;0.00
29460;PMS7003;16428;47.836;35.106;2022-12-18T16:36:29;0.00;0.00;0.00
29460;PMS7003;16428;47.836;35.106;2022-12-18T16:39:37;0.00;0.00;0.00
29460;PMS7003;16428;47.836;35.106;2022-12-18T16:42:35;0.00;0.00;0.00
29460;PMS7003;16428;47.836;35.106;2022-12-18T16:48:23;4.00;4.00;3.00
29460;PMS7003;16428;47.836;35.106;2022-12-18T16:51:45;0.00;0.00;0.00
29460;PMS7003;16428;47.836;35.106;2022-12-18T16:54:31;0.00;0.00;0.00
29460;PMS7003;16428;47.836;35.106;2022-12-18T16:57:09;0.00;0.00;0.00
29460;PMS7003;16428;47.836;35.106;2022-12-18T17:00:18;3.50;3.50;3.00
29460;PMS7003;16428;47.836;35.106;2022-12-18T17:03:16;0.00;0.00;0.00
29460;PMS7003;16428;47.836;35.106;2022-12-18T17:06:15;0.00;0.00;0.00
29460;PMS7003;16428;47.836;35.106;2022-12-18T17:09:11;0.00;0.00;0.00
29460;PMS7003;16428;47.836;35.106;2022-12-18T17:11:54;4.00;4.00;4.00
29460;PMS7003;16428;47.836;35.106;2022-12-18T17:14:23;0.00;0.00;0.00
29460;PMS7003;16428;47.836;35.106;2022-12-18T17:16:58;0.00;0.00;0.00
29460;PMS7003;16428;47.836;35.106;2022-12-18T17:19:47;2.25;0.00;0.00
29460;PMS7003;16428;47.836;35.106;2022-12-18T17:22:15;4.00;4.00;4.00
29460;PMS7003;16428;47.836;35.106;2022-12-18T17:24:48;0.00;0.00;0.00
29460;PMS7003;16428;47.836;35.106;2022-12-18T17:27:25;1.00;1.00;1.00
29460;PMS7003;16428;47.836;35.106;2022-12-18T17:29:53;0.00;0.00;0.00
29460;PMS7003;16428;47.836;35.106;2022-12-18T17:32:22;0.00;0.00;0.00
29460;PMS7003;16428;47.836;35.106;2022-12-18T17:34:50;0.00;0.00;0.00
29460;PMS7003;16428;47.836;35.106;2022-12-18T17:37:18;4.75;4.75;4.75
29460;PMS7003;16428;47.836;35.106;2022-12-18T17:39:46;36.25;32.75;22.00
29460;PMS7003;16428;47.836;35.106;2022-12-18T17:42:16;31.67;30.00;20.67
29460;PMS7003;16428;47.836;35.106;2022-12-18T17:44:45;34.33;26.33;18.00
29460;PMS7003;16428;47.836;35.106;2022-12-18T17:47:30;31.33;30.00;21.00
29460;PMS7003;16428;47.836;35.106;2022-12-18T17:49:58;29.67;28.00;19.33
29460;PMS7003;16428;47.836;35.106;2022-12-18T17:52:26;24.75;20.50;14.75
29460;PMS7003;16428;47.836;35.106;2022-12-18T17:54:55;24.67;23.33;16.67
29460;PMS7003;16428;47.836;35.106;2022-12-18T17:57:24;29.33;24.33;19.67
29460;PMS7003;16428;47.836;35.106;2022-12-18T17:59:57;26.00;23.25;17.25
29460;PMS7003;16428;47.836;35.106;2022-12-18T18:02:25;24.00;22.00;16.50
29460;PMS7003;16428;47.836;35.106;2022-12-18T18:04:53;23.75;22.50;15.25
29460;PMS7003;16428;47.836;35.106;2022-12-18T18:07:22;22.75;22.75;16.00
29460;PMS7003;16428;47.836;35.106;2022-12-18T18:09:51;24.00;20.25;15.00
29460;PMS7003;16428;47.836;35.106;2022-12-18T18:12:20;23.75;21.00;17.00
29460;PMS7003;16428;47.836;35.106;2022-12-18T18:15:15;24.67;22.00;14.67
29460;PMS7003;16428;47.836;35.106;2022-12-18T18:17:44;26.67;24.67;17.33
29460;PMS7003;16428;47.836;35.106;2022-12-18T18:20:16;25.33;20.67;15.33
29460;PMS7003;16428;47.836;35.106;2022-12-18T18:22:49;19.33;18.00;10.67
29460;PMS7003;16428;47.836;35.106;2022-12-18T18:25:17;9.33;7.00;0.00
29460;PMS7003;16428;47.836;35.106;2022-12-18T18:27:46;24.00;23.00;14.00
29460;PMS7003;16428;47.836;35.106;2022-12-18T18:30:17;30.33;26.67;18.33
29460;PMS7003;16428;47.836;35.106;2022-12-18T18:32:46;29.67;26.33;19.33
29460;PMS7003;16428;47.836;35.106;2022-12-18T18:35:15;33.33;29.67;20.33
29460;PMS7003;16428;47.836;35.106;2022-12-18T18:38:03;33.00;29.33;21.67
29460;PMS7003;16428;47.836;35.106;2022-12-18T18:40:32;27.33;27.33;19.67
29460;PMS7003;16428;47.836;35.106;2022-12-18T18:43:00;25.00;25.00;19.00
29460;PMS7003;16428;47.836;35.106;2022-12-18T18:45:30;31.00;26.67;19.00
29460;PMS7003;16428;47.836;35.106;2022-12-18T18:47:58;21.33;18.00;14.00
29460;PMS7003;16428;47.836;35.106;2022-12-18T18:50:26;25.00;23.00;17.00
29460;PMS7003;16428;47.836;35.106;2022-12-18T18:52:55;23.00;23.00;16.67
29460;PMS7003;16428;47.836;35.106;2022-12-18T18:55:25;22.33;22.33;17.67
29460;PMS7003;16428;47.836;35.106;2022-12-18T18:57:52;22.00;18.00;14.00
29460;PMS7003;16428;47.836;35.106;2022-12-18T19:00:20;30.75;25.25;17.50
29460;PMS7003;16428;47.836;35.106;2022-12-18T19:02:48;26.33;26.33;17.00
29460;PMS7003;16428;47.836;35.106;2022-12-18T19:05:17;27.50;25.50;15.75
29460;PMS7003;16428;47.836;35.106;2022-12-18T19:07:45;28.50;22.00;17.00
29460;PMS7003;16428;47.836;35.106;2022-12-18T19:10:13;26.00;24.00;18.00
29460;PMS7003;16428;47.836;35.106;2022-12-18T19:12:42;27.33;27.33;20.00
29460;PMS7003;16428;47.836;35.106;2022-12-18T19:15:28;29.33;26.67;19.33
29460;PMS7003;16428;47.836;35.106;2022-12-18T19:17:56;30.33;26.00;19.33
29460;PMS7003;16428;47.836;35.106;2022-12-18T19:20:24;24.67;21.67;16.67
29460;PMS7003;16428;47.836;35.106;2022-12-18T19:22:57;32.00;29.00;22.00
29460;PMS7003;16428;47.836;35.106;2022-12-18T19:25:38;27.33;24.33;19.00
29460;PMS7003;16428;47.836;35.106;2022-12-18T19:28:13;29.33;27.67;20.33
29460;PMS7003;16428;47.836;35.106;2022-12-18T19:30:49;23.75;22.00;15.75
29460;PMS7003;16428;47.836;35.106;2022-12-18T19:33:26;34.33;29.00;19.00
29460;PMS7003;16428;47.836;35.106;2022-12-18T19:38:40;22.00;22.00;16.67